Wednesday, July 01, 2015

  Over 48,494,314 pages visited!

GMT:
00:50
PACIFIC:
5:50:19 PM
MOUNTAIN:
6:50:19 PM

CENTRAL:
7:50:19 PM

EASTERN:
8:50:19 PM
ATLANTIC:
9:50:19 PM
NEWFOUNDLAND:
10:20:19 PM
 

 


Watches/Warnings
Current Conditions
Radar/Satellite
Lightning Images


Current Weather Conditions For TORONTO PEARSON,ON

 


A Few Clouds
 

Temperature: 20C / 68F
Dew Point: 13 C / 55F
Humidity: 64 %
Pressure: 1010.9 mbs (29.85 inches)
Visibility: 19.3 kms (12 SM)
Wind Direction: NW (310)
Wind Speed: 24.1 Km/h (15 MPH)
Max Wind Gust: No Gusts
Humidex: N/A
WindChill: N/A
    

Observation Information

Date/Time: Wednesday, July 01, 2015 @ 00:00Z
Local Time:
Metar Coded: CYYZ 020000Z 31013KT 12SM FEW038 20/13 A2985 RMK CU2 SLP109 DENSITY ALT 1300FT

 

 

                   1997-2015 The Ontario Weather Page